Time;durP1;ratioP1;P1;durP2;ratioP2;P2;SDS_P1;SDS_P2;PMS_P1;PMS_P2;Temp;Humidity;BMP_temperature;BMP_pressure;BME280_temperature;BME280_humidity;BME280_pressure;Samples;Min_cycle;Max_cycle;Signal;HPM_P1;HPM_P2
2022/04/17 00:00:22;;;;;;;16.87;15.97;;;9.10;23.40;;;;;;4973981;28;20186;-83
2022/04/17 00:02:47;;;;;;;17.00;16.20;;;9.00;23.30;;;;;;4973836;28;20194;-83
2022/04/17 00:05:13;;;;;;;16.27;15.60;;;9.00;23.40;;;;;;4973223;28;20749;-83
2022/04/17 00:07:39;;;;;;;17.10;16.40;;;9.00;24.00;;;;;;4973230;28;20233;-84
2022/04/17 00:10:05;;;;;;;18.17;17.30;;;9.00;23.80;;;;;;4973569;28;20189;-84
2022/04/17 00:12:32;;;;;;;17.00;16.30;;;9.00;24.40;;;;;;4972528;28;20437;-82
2022/04/17 00:15:00;;;;;;;17.93;17.00;;;9.10;24.60;;;;;;4971611;28;20422;-82
2022/04/17 00:17:25;;;;;;;16.80;16.00;;;9.10;24.40;;;;;;4971961;28;20588;-84
2022/04/17 00:19:51;;;;;;;17.23;16.00;;;9.10;24.50;;;;;;4972073;28;20440;-84
2022/04/17 00:22:17;;;;;;;15.30;14.70;;;9.10;24.90;;;;;;4972198;28;20229;-84
2022/04/17 00:24:43;;;;;;;16.10;15.50;;;8.90;23.90;;;;;;4972687;28;20174;-84
2022/04/17 00:27:09;;;;;;;16.37;15.57;;;8.90;24.70;;;;;;4972062;28;20189;-84
2022/04/17 00:29:35;;;;;;;15.30;14.60;;;8.80;25.20;;;;;;4971923;28;20195;-84
2022/04/17 00:32:01;;;;;;;14.93;14.17;;;8.80;25.50;;;;;;4971314;28;20933;-84
2022/04/17 00:34:29;;;;;;;16.50;15.80;;;8.80;25.10;;;;;;4971773;28;20410;-84
2022/04/17 00:36:59;;;;;;;16.50;15.80;;;8.80;25.30;;;;;;4972048;28;20849;-83
2022/04/17 00:39:25;;;;;;;15.97;15.30;;;8.80;25.20;;;;;;4971658;28;20493;-84
2022/04/17 00:41:51;;;;;;;17.10;16.30;;;8.80;25.80;;;;;;4972004;28;20833;-83
2022/04/17 00:44:17;;;;;;;15.20;14.63;;;8.70;25.00;;;;;;4972185;28;20449;-83
2022/04/17 00:46:43;;;;;;;15.70;15.10;;;8.70;25.90;;;;;;4971414;28;20190;-84
2022/04/17 00:49:09;;;;;;;15.93;15.23;;;8.70;25.90;;;;;;4971475;28;20217;-84
2022/04/17 00:51:36;;;;;;;15.50;14.90;;;8.50;25.40;;;;;;4971290;28;20809;-83
2022/04/17 00:54:03;;;;;;;15.30;14.70;;;8.40;25.50;;;;;;4971504;28;20417;-83
2022/04/17 00:56:31;;;;;;;16.77;15.97;;;8.40;26.50;;;;;;4971019;28;20468;-83
2022/04/17 00:58:57;;;;;;;17.10;16.40;;;8.40;25.70;;;;;;4971229;28;20425;-83
2022/04/17 01:01:23;;;;;;;16.50;15.80;;;8.30;26.40;;;;;;4971927;28;20460;-84
2022/04/17 01:03:50;;;;;;;16.50;15.90;;;8.40;26.90;;;;;;4972038;28;20934;-84
2022/04/17 01:06:16;;;;;;;17.10;16.30;;;8.30;26.00;;;;;;4971763;28;20426;-84
2022/04/17 01:08:42;;;;;;;16.50;15.90;;;8.30;27.10;;;;;;4971791;28;20460;-84
2022/04/17 01:11:11;;;;;;;17.50;16.40;;;8.20;26.30;;;;;;4970518;28;20437;-84
2022/04/17 01:13:41;;;;;;;17.20;16.43;;;8.20;26.80;;;;;;4971907;28;20190;-84
2022/04/17 01:16:07;;;;;;;17.33;16.53;;;8.30;27.10;;;;;;4971908;28;20453;-84
2022/04/17 01:18:52;;;;;;;17.13;16.43;;;8.20;27.50;;;;;;4971929;28;20422;-84
2022/04/17 01:21:18;;;;;;;16.10;15.50;;;8.30;27.70;;;;;;4972418;28;20442;-84
2022/04/17 01:29:14;;;;;;;17.13;16.43;;;8.10;27.30;;;;;;4972713;28;20409;-85
2022/04/17 01:31:40;;;;;;;16.70;16.00;;;8.10;26.80;;;;;;4970824;28;20446;-85
2022/04/17 01:34:05;;;;;;;16.90;16.20;;;7.90;27.50;;;;;;4970411;28;20838;-85
2022/04/17 01:36:31;;;;;;;16.63;15.80;;;7.90;27.80;;;;;;4969982;28;20293;-85
2022/04/17 01:38:57;;;;;;;17.30;16.50;;;7.90;27.90;;;;;;4969145;28;20171;-85
2022/04/17 01:41:22;;;;;;;16.87;16.10;;;7.90;27.50;;;;;;4969700;28;20537;-85
2022/04/17 01:43:48;;;;;;;16.27;15.67;;;7.90;29.00;;;;;;4971231;28;20248;-85
2022/04/17 01:46:13;;;;;;;16.40;15.70;;;7.90;27.30;;;;;;4970621;28;20646;-84
2022/04/17 01:48:39;;;;;;;16.40;15.70;;;7.80;27.80;;;;;;4970114;28;20600;-84
2022/04/17 01:51:05;;;;;;;16.60;15.80;;;7.90;27.30;;;;;;4970182;28;20235;-85
2022/04/17 01:53:30;;;;;;;16.90;16.20;;;7.90;27.60;;;;;;4970018;28;20179;-85
2022/04/17 01:56:00;;;;;;;17.30;16.40;;;7.90;28.10;;;;;;4969633;28;20537;-84
2022/04/17 01:58:25;;;;;;;18.03;17.03;;;7.80;27.80;;;;;;4971090;28;20213;-84
2022/04/17 02:00:51;;;;;;;16.83;16.13;;;7.70;27.80;;;;;;4969841;28;20418;-85
2022/04/17 02:03:16;;;;;;;17.07;16.27;;;7.90;27.50;;;;;;4969497;28;20210;-85
2022/04/17 02:05:42;;;;;;;17.03;16.27;;;7.90;28.00;;;;;;4970023;28;20229;-85
2022/04/17 02:08:08;;;;;;;16.80;16.10;;;7.90;28.70;;;;;;4969908;28;20237;-84
2022/04/17 02:10:34;;;;;;;17.70;17.00;;;7.80;28.40;;;;;;4968981;28;20649;-84
2022/04/17 02:13:00;;;;;;;16.63;15.97;;;7.70;28.40;;;;;;4969618;28;20245;-84
2022/04/17 02:15:26;;;;;;;18.17;17.37;;;7.70;28.70;;;;;;4969235;28;20488;-84
2022/04/17 02:17:52;;;;;;;18.47;17.57;;;7.60;28.50;;;;;;4968786;28;20564;-85
2022/04/17 02:20:19;;;;;;;18.30;17.40;;;7.60;28.80;;;;;;4979355;28;20429;-82
2022/04/17 02:22:45;;;;;;;18.37;17.57;;;7.50;28.60;;;;;;4997275;28;20699;-82
2022/04/17 02:25:13;;;;;;;18.53;17.83;;;7.50;29.20;;;;;;4995831;28;20401;-82
2022/04/17 02:27:39;;;;;;;17.90;17.10;;;7.50;29.10;;;;;;4994280;28;20479;-85
2022/04/17 02:30:08;;;;;;;16.83;16.23;;;7.50;29.50;;;;;;4991155;28;20447;-85
2022/04/17 02:32:34;;;;;;;18.40;17.50;;;7.40;29.60;;;;;;4996113;28;20176;-84
2022/04/17 02:35:00;;;;;;;17.80;16.90;;;7.30;29.40;;;;;;4998147;28;20408;-85
2022/04/17 02:37:31;;;;;;;18.30;17.50;;;7.30;29.80;;;;;;4998558;28;20194;-85
2022/04/17 02:39:57;;;;;;;18.90;18.03;;;7.30;29.30;;;;;;4998374;28;20170;-85
2022/04/17 02:42:22;;;;;;;17.80;17.10;;;7.30;29.30;;;;;;4997616;28;20416;-84
2022/04/17 02:44:48;;;;;;;18.73;17.80;;;7.30;29.80;;;;;;4997675;28;20717;-85
2022/04/17 02:50:01;;;;;;;17.80;17.10;;;7.30;30.00;;;;;;4995544;28;20224;-85
2022/04/17 02:52:27;;;;;;;18.67;17.90;;;7.20;30.10;;;;;;4998893;28;20425;-85
2022/04/17 02:54:54;;;;;;;17.87;17.07;;;7.20;30.10;;;;;;5006846;28;20424;-86
2022/04/17 02:57:20;;;;;;;17.60;16.90;;;7.30;30.20;;;;;;5010200;28;20463;-85
2022/04/17 02:59:45;;;;;;;17.43;16.73;;;7.20;30.10;;;;;;5009501;28;20416;-85
2022/04/17 03:07:39;;;;;;;18.37;17.57;;;7.10;30.10;;;;;;5010956;28;20418;-84
2022/04/17 03:10:05;;;;;;;17.60;16.90;;;7.10;30.10;;;;;;5009109;28;20420;-84
2022/04/17 03:12:31;;;;;;;18.67;17.87;;;7.00;30.00;;;;;;5010542;28;20239;-85
2022/04/17 03:14:56;;;;;;;17.70;17.00;;;7.10;30.10;;;;;;5011046;28;20424;-84
2022/04/17 03:17:22;;;;;;;18.53;17.47;;;7.20;30.20;;;;;;5011027;28;20779;-85
2022/04/17 03:19:48;;;;;;;18.23;17.43;;;7.10;30.10;;;;;;5011335;28;20272;-85
2022/04/17 03:22:14;;;;;;;19.00;18.10;;;7.10;29.70;;;;;;5011831;28;20180;-85
2022/04/17 03:24:40;;;;;;;18.50;17.70;;;7.10;30.10;;;;;;5011175;28;20253;-84
2022/04/17 03:27:06;;;;;;;17.40;16.70;;;7.20;30.10;;;;;;5011515;28;20793;-85
2022/04/17 03:29:31;;;;;;;17.83;17.03;;;7.10;30.00;;;;;;5011518;28;20240;-85
2022/04/17 03:31:57;;;;;;;17.80;17.00;;;7.20;30.20;;;;;;5012663;28;20288;-85
2022/04/17 03:34:23;;;;;;;17.87;17.07;;;7.00;30.00;;;;;;5011855;28;20177;-85
2022/04/17 03:36:49;;;;;;;18.37;17.50;;;7.00;30.20;;;;;;5012164;28;20267;-85
2022/04/17 03:39:14;;;;;;;18.03;17.13;;;7.00;29.70;;;;;;5012904;28;20181;-85
2022/04/17 03:41:40;;;;;;;17.10;16.43;;;7.00;30.00;;;;;;5012777;28;20420;-84
2022/04/17 03:44:06;;;;;;;17.93;17.13;;;6.90;30.90;;;;;;5012325;28;20227;-85
2022/04/17 03:46:33;;;;;;;17.67;16.80;;;6.90;30.00;;;;;;5012791;28;20185;-84
2022/04/17 03:48:58;;;;;;;18.37;17.43;;;6.90;30.30;;;;;;5013403;28;20204;-85
2022/04/17 03:51:24;;;;;;;19.10;18.20;;;6.90;30.10;;;;;;5013140;28;20943;-85
2022/04/17 03:53:50;;;;;;;18.83;17.83;;;6.80;29.90;;;;;;5013158;28;20180;-84
2022/04/17 03:56:15;;;;;;;18.40;17.60;;;6.60;30.10;;;;;;5012891;28;20188;-84
2022/04/17 03:58:41;;;;;;;17.53;16.83;;;6.50;30.50;;;;;;5013707;28;20182;-84
2022/04/17 04:01:06;;;;;;;18.10;17.20;;;6.40;31.10;;;;;;5013197;28;20519;-85
2022/04/17 04:03:33;;;;;;;17.97;17.17;;;6.30;31.20;;;;;;5013331;28;20177;-85
2022/04/17 04:05:59;;;;;;;17.80;16.90;;;6.30;31.40;;;;;;5012868;28;20178;-85
2022/04/17 04:08:26;;;;;;;17.20;16.30;;;6.40;31.60;;;;;;5013019;28;20417;-85
2022/04/17 04:10:51;;;;;;;17.33;16.50;;;6.40;31.70;;;;;;5008794;28;20251;-85
2022/04/17 04:13:17;;;;;;;16.57;15.70;;;6.40;30.90;;;;;;5013108;28;20965;-85
2022/04/17 04:15:43;;;;;;;17.70;16.80;;;6.40;32.20;;;;;;5004912;28;20182;-85
2022/04/17 04:18:09;;;;;;;18.30;17.47;;;6.40;31.00;;;;;;4992935;28;20257;-84
2022/04/17 04:20:34;;;;;;;17.83;17.10;;;6.40;31.30;;;;;;4992987;28;20421;-84
2022/04/17 04:23:00;;;;;;;18.37;17.37;;;6.30;31.90;;;;;;4992696;28;20213;-84
2022/04/17 04:25:25;;;;;;;18.50;17.47;;;6.40;31.00;;;;;;4993213;28;20186;-84
2022/04/17 04:30:35;;;;;;;17.57;16.83;;;6.30;31.50;;;;;;4994499;28;20240;-84
2022/04/17 04:33:01;;;;;;;17.10;16.30;;;6.30;32.00;;;;;;4992732;28;20925;-85
2022/04/17 04:35:26;;;;;;;17.70;16.90;;;6.30;32.00;;;;;;4993215;28;20237;-84
2022/04/17 04:37:52;;;;;;;17.10;16.40;;;6.20;31.60;;;;;;4993162;28;20581;-85
2022/04/17 04:40:18;;;;;;;18.10;17.20;;;6.20;32.00;;;;;;4993052;28;20567;-85
2022/04/17 04:42:44;;;;;;;18.50;17.73;;;6.20;32.90;;;;;;4993264;28;20190;-85
2022/04/17 04:48:02;;;;;;;18.47;17.50;;;6.20;31.40;;;;;;4994269;28;20229;-85
2022/04/17 04:50:28;;;;;;;18.50;17.70;;;6.30;31.60;;;;;;4992930;28;20948;-85
2022/04/17 04:52:53;;;;;;;18.53;17.63;;;6.30;31.70;;;;;;4993904;28;20215;-85
2022/04/17 04:55:19;;;;;;;17.90;17.10;;;6.30;31.80;;;;;;4995259;28;20182;-85
2022/04/17 04:57:44;;;;;;;17.93;17.13;;;6.30;32.40;;;;;;4993581;28;20231;-85
2022/04/17 05:00:10;;;;;;;18.37;17.60;;;6.20;31.90;;;;;;4992975;28;20633;-85
2022/04/17 05:02:37;;;;;;;18.47;17.77;;;6.20;32.10;;;;;;4992701;28;20252;-85
2022/04/17 05:05:05;;;;;;;18.13;17.20;;;6.20;31.60;;;;;;4993093;28;20417;-85
2022/04/17 05:07:30;;;;;;;18.07;17.27;;;6.20;32.10;;;;;;4992927;28;20426;-82
2022/04/17 05:09:56;;;;;;;17.33;16.63;;;6.20;32.00;;;;;;4992547;28;20421;-82
2022/04/17 05:12:22;;;;;;;16.57;15.87;;;6.30;32.70;;;;;;4992618;28;20178;-82
2022/04/17 05:14:48;;;;;;;17.63;16.83;;;6.20;32.60;;;;;;4992350;28;20280;-82
2022/04/17 05:17:13;;;;;;;17.77;16.97;;;6.10;33.00;;;;;;4991762;28;20580;-82
2022/04/17 05:19:39;;;;;;;16.70;16.00;;;6.20;33.00;;;;;;4993349;28;20444;-83
2022/04/17 05:22:10;;;;;;;18.53;17.63;;;5.90;32.50;;;;;;4992348;28;20653;-83
2022/04/17 05:24:37;;;;;;;17.97;17.17;;;6.00;32.50;;;;;;4992482;28;20181;-83
2022/04/17 05:27:03;;;;;;;18.57;17.87;;;6.10;32.40;;;;;;4992902;28;20417;-83
2022/04/17 05:29:28;;;;;;;17.23;16.47;;;6.20;32.00;;;;;;4993657;28;20424;-84
2022/04/17 05:31:54;;;;;;;17.17;16.47;;;6.20;32.00;;;;;;4993862;28;20551;-82
2022/04/17 05:34:19;;;;;;;17.50;16.67;;;6.30;32.20;;;;;;4993127;28;20213;-85
2022/04/17 05:36:46;;;;;;;19.13;17.80;;;6.40;32.20;;;;;;4992668;28;20303;-82
2022/04/17 05:39:12;;;;;;;18.27;17.47;;;6.60;31.80;;;;;;4991620;28;20229;-82
2022/04/17 05:41:39;;;;;;;18.27;17.20;;;6.60;31.20;;;;;;4991504;28;20445;-82
2022/04/17 05:44:07;;;;;;;17.30;16.60;;;6.60;31.30;;;;;;4991424;28;20193;-82
2022/04/17 05:46:36;;;;;;;18.40;17.20;;;6.50;31.80;;;;;;4991539;28;20429;-82
2022/04/17 05:49:03;;;;;;;17.70;16.90;;;6.60;31.40;;;;;;4991347;28;20422;-82
2022/04/17 05:51:29;;;;;;;17.67;16.87;;;6.60;32.00;;;;;;4991355;28;20937;-82
2022/04/17 05:53:54;;;;;;;17.67;16.87;;;6.50;30.10;;;;;;4991528;28;20409;-83
2022/04/17 05:56:20;;;;;;;18.03;17.13;;;6.40;30.70;;;;;;4991142;28;20184;-82
2022/04/17 05:58:46;;;;;;;17.70;16.90;;;6.50;31.40;;;;;;4991467;28;20269;-82
2022/04/17 06:01:11;;;;;;;17.50;16.73;;;6.60;31.50;;;;;;4991305;28;20196;-82
2022/04/17 06:03:37;;;;;;;17.30;16.60;;;6.70;30.80;;;;;;4992437;28;20177;-83
2022/04/17 06:06:03;;;;;;;16.40;15.60;;;6.70;29.90;;;;;;4991404;28;20643;-83
2022/04/17 06:08:28;;;;;;;17.80;16.97;;;6.80;29.90;;;;;;4991412;28;20265;-82
2022/04/17 06:10:55;;;;;;;17.40;16.50;;;6.70;29.90;;;;;;4987213;28;20713;-82
2022/04/17 06:13:20;;;;;;;17.70;17.00;;;6.80;30.00;;;;;;4988117;28;20640;-82
2022/04/17 06:15:46;;;;;;;18.77;17.87;;;6.90;29.70;;;;;;4988040;28;20512;-80
2022/04/17 06:18:12;;;;;;;17.30;16.30;;;7.00;30.00;;;;;;4987509;28;20206;-82
2022/04/17 06:20:38;;;;;;;16.53;15.90;;;7.10;29.70;;;;;;4988489;28;20185;-83
2022/04/17 06:23:04;;;;;;;16.40;15.70;;;7.10;29.40;;;;;;4988761;28;20570;-83
2022/04/17 06:25:31;;;;;;;16.90;16.13;;;7.20;29.20;;;;;;4988524;28;20919;-81
2022/04/17 06:27:57;;;;;;;17.03;16.33;;;7.30;29.00;;;;;;4988660;28;20217;-81
2022/04/17 06:30:23;;;;;;;16.03;15.40;;;7.40;28.90;;;;;;4992609;28;20448;-86
2022/04/17 06:32:50;;;;;;;17.43;16.73;;;7.40;28.90;;;;;;4993606;28;20501;-85
2022/04/17 06:35:17;;;;;;;17.00;16.30;;;7.40;28.10;;;;;;4993143;28;20417;-85
2022/04/17 06:37:56;;;;;;;15.70;15.20;;;7.40;28.30;;;;;;5015443;28;20506;-85
2022/04/17 06:40:22;;;;;;;17.57;16.80;;;7.40;28.90;;;;;;5015812;28;20435;-84
2022/04/17 06:42:49;;;;;;;16.43;15.67;;;7.50;28.40;;;;;;5008156;28;20412;-85
2022/04/17 06:45:16;;;;;;;15.27;14.70;;;7.60;28.50;;;;;;5016961;28;20174;-85
2022/04/17 06:47:43;;;;;;;17.00;16.20;;;7.60;28.10;;;;;;5004269;28;20424;-85
2022/04/17 06:50:09;;;;;;;16.30;15.50;;;7.80;27.80;;;;;;5004973;28;20428;-85
2022/04/17 06:52:35;;;;;;;17.13;16.13;;;7.90;28.10;;;;;;4996910;28;20925;-85
2022/04/17 06:55:01;;;;;;;17.07;16.17;;;8.00;27.50;;;;;;5014737;28;20419;-86
2022/04/17 06:57:31;;;;;;;16.07;15.30;;;8.00;27.30;;;;;;5009506;28;20272;-84
2022/04/17 06:59:56;;;;;;;17.47;16.77;;;8.10;27.50;;;;;;5009143;28;20416;-84
2022/04/17 07:02:22;;;;;;;15.60;15.00;;;8.20;27.50;;;;;;4995633;28;20424;-86
2022/04/17 07:04:51;;;;;;;16.10;15.50;;;8.30;26.20;;;;;;5005682;28;20177;-83
2022/04/17 07:07:17;;;;;;;17.23;16.33;;;8.50;25.00;;;;;;5018608;28;20185;-81
2022/04/17 07:09:42;;;;;;;17.30;16.60;;;8.60;25.50;;;;;;5004333;28;20944;-82
2022/04/17 07:12:08;;;;;;;16.20;15.50;;;8.80;25.40;;;;;;5007658;28;20186;-81
2022/04/17 07:14:34;;;;;;;16.10;15.50;;;8.90;25.10;;;;;;5005045;28;20178;-81
2022/04/17 07:16:59;;;;;;;18.10;17.20;;;9.00;25.30;;;;;;5015837;28;20256;-82
2022/04/17 07:19:25;;;;;;;16.43;15.70;;;9.10;25.50;;;;;;5015254;28;20181;-81
2022/04/17 07:21:51;;;;;;;16.07;15.47;;;9.10;25.00;;;;;;5005458;28;20211;-81
2022/04/17 07:24:16;;;;;;;17.37;16.57;;;9.30;25.30;;;;;;4996531;28;20253;-81
2022/04/17 07:26:42;;;;;;;16.87;16.17;;;9.40;24.90;;;;;;4995446;28;20647;-85
2022/04/17 07:29:08;;;;;;;15.70;15.10;;;9.50;24.30;;;;;;4976664;28;20206;-86
2022/04/17 07:31:34;;;;;;;16.90;16.20;;;9.40;23.80;;;;;;4975962;28;20186;-84
2022/04/17 07:34:00;;;;;;;15.67;15.07;;;9.50;24.90;;;;;;4976692;28;20175;-85
2022/04/17 07:36:26;;;;;;;17.93;17.13;;;9.60;24.60;;;;;;4976319;28;20918;-85
2022/04/17 07:38:51;;;;;;;18.27;17.37;;;9.70;24.20;;;;;;4976758;28;20543;-85
2022/04/17 07:41:17;;;;;;;16.50;15.80;;;9.70;24.10;;;;;;4973996;28;20429;-86
2022/04/17 07:43:43;;;;;;;17.37;16.47;;;9.70;23.70;;;;;;4974643;28;20175;-86
2022/04/17 07:46:09;;;;;;;16.50;15.90;;;9.80;23.90;;;;;;4974919;28;20182;-86
2022/04/17 07:48:35;;;;;;;17.13;16.43;;;9.90;23.60;;;;;;4975196;28;20273;-85
2022/04/17 07:51:01;;;;;;;16.00;15.40;;;10.10;21.90;;;;;;4974828;28;20553;-85
2022/04/17 07:53:26;;;;;;;16.80;16.20;;;10.20;21.70;;;;;;4974983;28;20179;-86
2022/04/17 07:55:52;;;;;;;15.87;15.27;;;10.20;22.00;;;;;;4974728;28;20426;-86
2022/04/17 07:58:33;;;;;;;15.90;15.10;;;10.30;22.40;;;;;;4975144;28;20206;-84
2022/04/17 08:00:59;;;;;;;16.63;15.93;;;10.30;21.30;;;;;;4974612;28;20182;-85
2022/04/17 08:06:07;;;;;;;16.90;15.90;;;10.50;19.90;;;;;;4976204;28;20476;-85
2022/04/17 08:08:37;;;;;;;16.23;15.63;;;10.50;20.30;;;;;;4974909;28;20518;-86
2022/04/17 08:11:04;;;;;;;16.27;15.67;;;10.60;21.70;;;;;;4974388;28;20417;-86
2022/04/17 08:13:30;;;;;;;16.90;16.20;;;10.60;19.20;;;;;;4974286;28;20441;-85
2022/04/17 08:15:56;;;;;;;16.40;15.80;;;10.60;18.60;;;;;;4974740;28;20477;-86
2022/04/17 08:18:21;;;;;;;16.30;15.70;;;10.70;19.80;;;;;;4974391;28;20253;-85
2022/04/17 08:20:47;;;;;;;17.53;16.80;;;10.70;19.70;;;;;;4974933;28;20175;-85
2022/04/17 08:23:13;;;;;;;16.73;16.03;;;10.70;20.30;;;;;;4980029;28;20178;-84
2022/04/17 08:25:39;;;;;;;16.63;16.03;;;10.80;19.70;;;;;;4993499;28;20185;-84
2022/04/17 08:28:05;;;;;;;16.37;15.77;;;10.80;19.10;;;;;;4993058;28;20457;-84
2022/04/17 08:30:32;;;;;;;16.47;15.47;;;10.90;18.80;;;;;;4994628;28;20483;-84
2022/04/17 08:32:59;;;;;;;16.23;15.70;;;11.00;18.80;;;;;;4993318;28;20425;-85
2022/04/17 08:35:26;;;;;;;18.10;17.30;;;11.10;19.70;;;;;;4993733;28;20472;-84
2022/04/17 08:37:52;;;;;;;17.67;16.87;;;11.20;19.10;;;;;;4996646;28;20819;-84
2022/04/17 08:40:18;;;;;;;17.00;16.10;;;11.10;18.00;;;;;;5004264;28;20490;-84
2022/04/17 08:42:45;;;;;;;17.10;16.40;;;11.10;18.50;;;;;;5010256;28;20418;-85
2022/04/17 08:45:12;;;;;;;16.83;16.13;;;11.10;19.40;;;;;;5000789;28;20432;-85
2022/04/17 08:47:40;;;;;;;15.93;15.33;;;11.10;19.20;;;;;;5002866;28;20417;-84
2022/04/17 08:50:11;;;;;;;17.43;16.73;;;11.10;19.80;;;;;;5011567;28;20416;-85
2022/04/17 08:52:38;;;;;;;16.40;15.80;;;11.20;19.40;;;;;;4993153;28;20952;-82
2022/04/17 08:55:05;;;;;;;16.60;15.67;;;11.20;20.10;;;;;;4993200;28;20428;-85
2022/04/17 08:57:31;;;;;;;16.13;15.33;;;11.20;20.40;;;;;;4993660;28;20499;-83
2022/04/17 08:59:58;;;;;;;20.23;18.80;;;11.30;20.30;;;;;;4993535;28;20402;-83
2022/04/17 09:02:24;;;;;;;15.83;15.23;;;11.30;19.80;;;;;;4994355;28;20421;-85
2022/04/17 09:04:49;;;;;;;15.00;14.40;;;11.40;19.60;;;;;;5012929;28;20817;-84
2022/04/17 09:07:15;;;;;;;15.20;14.60;;;11.20;20.00;;;;;;5013787;28;20412;-84
2022/04/17 09:09:50;;;;;;;14.80;14.30;;;11.30;20.60;;;;;;4997341;28;20528;-85
2022/04/17 09:12:22;;;;;;;15.07;14.47;;;11.40;20.30;;;;;;4981130;28;20280;-85
2022/04/17 09:14:48;;;;;;;15.10;14.60;;;11.50;20.10;;;;;;4996984;28;20754;-85
2022/04/17 09:17:15;;;;;;;15.80;14.77;;;11.50;19.20;;;;;;4990361;28;20452;-85
2022/04/17 09:19:42;;;;;;;15.30;14.70;;;11.50;19.40;;;;;;5001177;28;20422;-86
2022/04/17 09:22:09;;;;;;;14.80;14.30;;;11.60;19.20;;;;;;5009725;28;20420;-86
2022/04/17 09:24:40;;;;;;;14.70;14.10;;;11.70;18.00;;;;;;5013389;28;20418;-86
2022/04/17 09:27:07;;;;;;;15.57;14.50;;;11.80;18.60;;;;;;5013848;28;20412;-86
2022/04/17 09:29:38;;;;;;;18.73;17.57;;;11.90;18.90;;;;;;5013990;28;20855;-86
2022/04/17 09:32:07;;;;;;;15.20;14.40;;;12.00;19.10;;;;;;5013547;28;20423;-89
2022/04/17 09:34:52;;;;;;;15.30;14.70;;;12.20;17.00;;;;;;4974378;28;20456;-81
2022/04/17 09:37:22;;;;;;;15.33;14.73;;;12.30;18.50;;;;;;4975709;28;20500;-89
2022/04/17 09:40:04;;;;;;;15.67;15.07;;;12.40;17.40;;;;;;4975016;28;20806;-87
2022/04/17 09:42:30;;;;;;;15.10;14.40;;;12.50;17.60;;;;;;4974508;28;20413;-85
2022/04/17 09:44:57;;;;;;;15.80;15.07;;;12.50;18.20;;;;;;4973998;28;20418;-82
2022/04/17 09:47:26;;;;;;;15.37;14.57;;;12.70;16.80;;;;;;4973419;28;20175;-79
2022/04/17 09:50:00;;;;;;;15.67;14.80;;;12.60;16.90;;;;;;4992812;28;20511;-81
2022/04/17 09:52:29;;;;;;;15.37;14.70;;;12.80;16.80;;;;;;5000252;28;20416;-82
2022/04/17 09:54:55;;;;;;;15.23;14.63;;;12.90;16.90;;;;;;4993675;28;20828;-82
2022/04/17 09:57:38;;;;;;;15.17;14.53;;;13.00;16.00;;;;;;4997749;28;20514;-79
2022/04/17 10:00:10;;;;;;;15.40;14.70;;;12.90;17.20;;;;;;5000304;28;20435;-79
2022/04/17 10:02:41;;;;;;;15.03;14.43;;;12.90;16.90;;;;;;5008099;28;20964;-79
2022/04/17 10:05:12;;;;;;;15.00;14.40;;;13.10;16.70;;;;;;4989007;28;20802;-79
2022/04/17 10:07:47;;;;;;;14.60;14.10;;;13.10;17.00;;;;;;5031502;22;20790;-79
2022/04/17 10:10:15;;;;;;;14.53;14.00;;;13.10;17.00;;;;;;4956175;28;20456;-84
2022/04/17 10:12:45;;;;;;;14.70;14.20;;;13.10;17.00;;;;;;4974019;28;20569;-85
2022/04/17 10:15:11;;;;;;;14.83;14.33;;;13.20;17.10;;;;;;4973066;28;20506;-84
2022/04/17 10:17:42;;;;;;;14.20;13.80;;;13.30;17.20;;;;;;4972829;28;20469;-81
2022/04/17 10:20:10;;;;;;;16.10;15.40;;;13.40;16.80;;;;;;4972944;28;20410;-83
2022/04/17 10:22:38;;;;;;;14.60;14.10;;;13.40;17.20;;;;;;4972796;28;20430;-83
2022/04/17 10:25:09;;;;;;;14.80;14.30;;;13.20;16.50;;;;;;4965152;28;20419;-83
2022/04/17 10:27:57;;;;;;;14.90;14.40;;;13.50;18.10;;;;;;4957647;28;20426;-83
2022/04/17 10:30:57;;;;;;;15.10;14.60;;;13.50;18.50;;;;;;4955193;29;20418;-83
2022/04/17 10:33:45;;;;;;;15.00;14.50;;;13.70;17.60;;;;;;4953656;29;20481;-82
2022/04/17 10:36:27;;;;;;;15.43;14.73;;;13.70;14.60;;;;;;4971038;28;20427;-82
2022/04/17 10:39:20;;;;;;;15.20;14.60;;;13.70;15.90;;;;;;4969710;28;20513;-83
2022/04/17 10:41:46;;;;;;;15.10;14.60;;;13.70;17.80;;;;;;4952900;29;20411;-83
2022/04/17 10:44:14;;;;;;;15.97;15.17;;;13.90;16.60;;;;;;4952860;29;20422;-83
2022/04/17 10:46:50;;;;;;;15.13;14.53;;;14.10;17.30;;;;;;4964622;28;20782;-83
2022/04/17 10:49:18;;;;;;;14.80;14.20;;;14.30;18.00;;;;;;4972242;28;20421;-84
2022/04/17 10:51:53;;;;;;;15.10;14.30;;;14.10;14.10;;;;;;4972786;28;20828;-83
2022/04/17 10:54:19;;;;;;;14.93;14.33;;;14.10;13.90;;;;;;4972677;28;20417;-84
2022/04/17 10:57:05;;;;;;;14.30;13.80;;;14.00;15.90;;;;;;4973504;28;20462;-84
2022/04/17 10:59:33;;;;;;;14.67;14.07;;;14.20;16.50;;;;;;4972291;28;20422;-83
2022/04/17 11:02:04;;;;;;;15.60;14.80;;;14.20;14.90;;;;;;4971422;28;20425;-83
2022/04/17 11:04:37;;;;;;;14.80;14.20;;;14.40;15.50;;;;;;4972218;28;20426;-84
2022/04/17 11:07:06;;;;;;;15.17;14.67;;;14.50;15.30;;;;;;4972445;28;20505;-83
2022/04/17 11:09:39;;;;;;;15.10;14.60;;;14.50;14.20;;;;;;4972145;28;20450;-84
2022/04/17 11:12:06;;;;;;;15.03;14.53;;;14.60;13.80;;;;;;4972325;28;20426;-84
2022/04/17 11:14:32;;;;;;;15.20;14.60;;;14.40;11.40;;;;;;4971947;28;20449;-83
2022/04/17 11:17:00;;;;;;;15.30;14.80;;;14.30;13.90;;;;;;4973896;28;20453;-84
2022/04/17 11:19:29;;;;;;;15.53;15.03;;;14.50;13.90;;;;;;4974634;28;20190;-84
2022/04/17 11:21:59;;;;;;;15.90;15.30;;;14.50;13.60;;;;;;4975511;28;20406;-83
2022/04/17 11:24:27;;;;;;;16.03;15.43;;;14.50;17.70;;;;;;4975062;28;20993;-86
2022/04/17 11:26:53;;;;;;;16.33;15.73;;;14.80;14.80;;;;;;4975604;28;20785;-86
2022/04/17 11:29:37;;;;;;;14.80;14.30;;;14.90;14.10;;;;;;4973884;28;20422;-85
2022/04/17 11:32:18;;;;;;;15.60;14.90;;;15.00;12.80;;;;;;4974987;28;20202;-87
2022/04/17 11:34:54;;;;;;;15.37;14.77;;;15.00;13.70;;;;;;4974090;28;20847;-86
2022/04/17 11:37:27;;;;;;;17.27;16.37;;;15.10;14.70;;;;;;4974332;28;20464;-80
2022/04/17 11:39:56;;;;;;;14.83;14.23;;;15.00;15.10;;;;;;4974770;28;20414;-80
2022/04/17 11:42:21;;;;;;;15.13;14.50;;;15.00;12.50;;;;;;4974414;28;20450;-80
2022/04/17 11:44:49;;;;;;;15.87;15.27;;;15.20;13.20;;;;;;4974108;28;20446;-81
2022/04/17 11:47:19;;;;;;;14.57;14.07;;;15.20;11.60;;;;;;4974260;28;20418;-81
2022/04/17 11:49:47;;;;;;;14.80;14.30;;;15.30;14.30;;;;;;4974277;28;20418;-81
2022/04/17 11:52:25;;;;;;;13.17;12.67;;;15.20;20.30;;;;;;4974405;28;20461;-80
2022/04/17 11:54:50;;;;;;;13.63;13.23;;;15.40;13.00;;;;;;4974212;28;20417;-81
2022/04/17 11:57:19;;;;;;;15.70;15.10;;;15.60;12.10;;;;;;4973593;28;20604;-80
2022/04/17 11:59:51;;;;;;;15.73;15.10;;;15.50;12.20;;;;;;4974248;28;20175;-81
2022/04/17 12:02:19;;;;;;;15.07;14.47;;;15.50;17.00;;;;;;4972388;28;20513;-80
2022/04/17 12:04:46;;;;;;;14.77;14.17;;;15.50;13.40;;;;;;4974011;28;20899;-82
2022/04/17 12:07:13;;;;;;;15.57;14.90;;;15.50;11.60;;;;;;4973842;28;20419;-81
2022/04/17 12:09:39;;;;;;;16.60;15.60;;;15.50;11.50;;;;;;4974006;28;20445;-82
2022/04/17 12:12:18;;;;;;;16.50;15.80;;;15.50;10.60;;;;;;4973929;28;20422;-82
2022/04/17 12:14:46;;;;;;;16.50;15.70;;;15.50;11.90;;;;;;4974304;28;20418;-81
2022/04/17 12:17:14;;;;;;;15.20;14.70;;;15.40;11.50;;;;;;4973549;28;20981;-81
2022/04/17 12:19:49;;;;;;;14.60;14.10;;;15.30;11.30;;;;;;4973661;28;20423;-83
2022/04/17 12:22:17;;;;;;;14.83;14.10;;;15.30;12.20;;;;;;4971205;28;20516;-83
2022/04/17 12:24:44;;;;;;;14.50;14.00;;;15.40;11.00;;;;;;4973654;28;20489;-83
2022/04/17 12:27:14;;;;;;;16.67;15.83;;;15.40;11.10;;;;;;4973181;28;20418;-79
2022/04/17 12:29:41;;;;;;;14.80;14.20;;;15.50;12.00;;;;;;4973029;28;20512;-81
2022/04/17 12:32:15;;;;;;;15.63;15.03;;;15.60;11.30;;;;;;4970596;28;20418;-81
2022/04/17 12:34:45;;;;;;;15.27;14.77;;;15.70;12.40;;;;;;4973162;28;20427;-83
2022/04/17 12:37:21;;;;;;;15.20;14.60;;;15.50;12.30;;;;;;4964130;28;20545;-80
2022/04/17 12:39:47;;;;;;;15.20;14.50;;;15.60;11.40;;;;;;4968464;28;20837;-81
2022/04/17 12:42:18;;;;;;;15.80;15.13;;;15.60;10.10;;;;;;4971930;28;20422;-82
2022/04/17 12:44:44;;;;;;;15.00;14.40;;;15.50;10.70;;;;;;4972155;28;20426;-82
2022/04/17 12:47:11;;;;;;;15.00;14.40;;;15.60;11.40;;;;;;4973237;28;20418;-82
2022/04/17 12:49:38;;;;;;;14.50;14.00;;;15.70;11.60;;;;;;4971451;28;20421;-82
2022/04/17 12:52:04;;;;;;;14.80;14.10;;;15.80;11.90;;;;;;4969602;28;20679;-82
2022/04/17 12:54:33;;;;;;;14.87;14.37;;;15.70;11.00;;;;;;4970277;28;20795;-86
2022/04/17 12:57:06;;;;;;;14.87;14.17;;;15.70;11.50;;;;;;4970478;28;20505;-86